This is the latest recevied weather packets stored in our database for station/object GrArber. If no packets are shown the sender has not sent any weather packets the latest 1 day(s).
| Time | Temp. | Humidity | Pressure | Rain* | Wind** | Luminosity | Snow |
|---|---|---|---|---|---|---|---|
| 1778019414 | 7.22° C | 87% | - | - | 8.94 m/s, 290° | - | - |
| 1778015832 | 7.78° C | 87% | - | - | 7.6 m/s, 280° | - | - |
| 1778012231 | 8.89° C | 76% | - | - | 9.39 m/s, 230° | - | - |
| 1778008632 | 7.78° C | 87% | - | - | 10.73 m/s, 240° | - | - |
| 1778005015 | 10° C | 76% | - | - | 7.6 m/s, 310° | - | - |
| 1778001415 | 12.22° C | 62% | - | - | 5.81 m/s, 220° | - | - |
| 1777997875 | 15° C | 47% | - | - | 0.89 m/s, 90° | - | - |
| 1777994214 | 17.22° C | 39% | - | - | 2.24 m/s, 140° | - | - |
| 1777990616 | 15° C | 41% | - | - | 2.24 m/s, 230° | - | - |
| 1777987016 | 17.22° C | 39% | - | - | 2.24 m/s, 300° | - | - |
| 1777983415 | 16.11° C | 44% | - | - | 1.34 m/s, 120° | - | - |
| 1777979816 | 17.78° C | 39% | - | - | 1.34 m/s, 340° | - | - |
| 1777976215 | 17.22° C | 39% | - | - | 2.68 m/s, 330° | - | - |
| 1777972615 | 16.11° C | 41% | - | - | 3.13 m/s, 340° | - | - |
| 1777969016 | 15° C | 47% | - | - | 2.24 m/s, 330° | - | - |
| 1777965414 | 13.89° C | 54% | - | - | 0.89 m/s, 320° | - | - |
| 1777961816 | 12.78° C | 54% | - | - | 1.34 m/s, 330° | - | - |
| 1777958215 | 12.22° C | 54% | - | - | 0.89 m/s, 310° | - | - |
| 1777954615 | 11.11° C | 57% | - | - | 5.81 m/s, 210° | - | - |
| 1777951015 | 12.22° C | 54% | - | - | 3.58 m/s, 190° | - | - |
| 1777947415 | 11.11° C | 57% | - | - | 3.13 m/s, 140° | - | - |
| 1777943816 | 11.11° C | 57% | - | - | 4.02 m/s, 230° | - | - |
| 1777940215 | 12.22° C | 54% | - | - | 5.36 m/s, 150° | - | - |
| 1777936615 | 12.22° C | 50% | - | - | 5.81 m/s, 150° | - | - |
* Rain since midnight (hover to see other rain measurements)
** Current wind speed in m/s (hover to see current wind gust speed)